createdAt,value
2018-07-01T00:01:09.720Z,59.10
2018-07-01T00:03:37.908Z,59.00
2018-07-01T00:06:06.086Z,59.80
2018-07-01T00:08:34.261Z,59.50
2018-07-01T00:11:02.446Z,60.10
2018-07-01T00:13:30.607Z,59.90
2018-07-01T00:15:58.780Z,61.50
2018-07-01T00:18:26.931Z,60.90
2018-07-01T00:20:55.162Z,61.50
2018-07-01T00:23:23.371Z,61.40
2018-07-01T00:25:51.598Z,61.90
2018-07-01T00:28:19.756Z,62.00
2018-07-01T00:30:48.214Z,62.40
2018-07-01T00:33:16.365Z,61.70
2018-07-01T00:35:44.544Z,62.50
2018-07-01T00:38:14.495Z,62.70
2018-07-01T00:40:42.716Z,62.90
2018-07-01T00:45:38.843Z,63.30
2018-07-01T00:48:07.116Z,62.70
2018-07-01T00:50:35.303Z,63.00
2018-07-01T00:53:03.483Z,64.10
2018-07-01T00:55:31.621Z,64.00
2018-07-01T00:57:59.822Z,63.80
2018-07-01T01:00:33.214Z,64.70
2018-07-01T01:03:02.502Z,64.40
2018-07-01T01:05:30.894Z,64.50
2018-07-01T01:07:59.585Z,65.80
2018-07-01T01:10:28.075Z,66.20
2018-07-01T01:12:57.450Z,66.20
2018-07-01T01:15:25.619Z,64.80
2018-07-01T01:17:54.124Z,64.70
2018-07-01T01:20:22.287Z,65.00
2018-07-01T01:22:50.505Z,65.00
2018-07-01T01:25:18.646Z,65.10
2018-07-01T01:27:46.785Z,65.60
2018-07-01T01:30:14.949Z,64.20
2018-07-01T01:32:43.105Z,65.00
2018-07-01T01:35:11.267Z,65.70
2018-07-01T01:37:39.705Z,66.00
2018-07-01T01:40:09.604Z,65.80
2018-07-01T01:42:41.577Z,66.90
2018-07-01T01:45:20.523Z,65.60
2018-07-01T01:47:59.039Z,66.30
2018-07-01T01:50:33.681Z,66.50
2018-07-01T01:53:07.219Z,66.90
2018-07-01T01:56:40.526Z,67.00
2018-07-01T01:59:16.307Z,66.70
2018-07-01T02:01:48.675Z,67.00
2018-07-01T02:04:27.192Z,67.60
2018-07-01T02:06:57.844Z,67.80
2018-07-01T02:09:30.846Z,67.20
2018-07-01T02:12:00.349Z,67.20
2018-07-01T02:14:37.791Z,66.60
2018-07-01T02:17:08.406Z,67.00
2018-07-01T02:19:36.595Z,67.30
2018-07-01T02:22:07.235Z,69.10
2018-07-01T02:24:40.241Z,68.00
2018-07-01T02:27:08.382Z,67.00
2018-07-01T02:29:36.537Z,67.00
2018-07-01T02:32:04.684Z,67.00
2018-07-01T02:34:32.809Z,66.40
2018-07-01T02:37:01.258Z,66.90
2018-07-01T02:39:29.503Z,66.70
2018-07-01T02:41:57.658Z,67.40
2018-07-01T02:44:25.791Z,67.20
2018-07-01T02:46:54.053Z,67.00
2018-07-01T02:49:22.218Z,66.30
2018-07-01T02:51:50.342Z,66.50
2018-07-01T02:54:18.528Z,67.50
2018-07-01T02:56:46.696Z,67.10
2018-07-01T02:59:14.846Z,66.60
2018-07-01T03:01:42.988Z,67.00
2018-07-01T03:04:11.107Z,67.40
2018-07-01T03:06:39.198Z,67.30
2018-07-01T03:09:10.162Z,67.10
2018-07-01T03:11:38.286Z,67.20
2018-07-01T03:14:07.339Z,67.70
2018-07-01T03:16:35.524Z,67.30
2018-07-01T03:19:03.942Z,66.80
2018-07-01T03:21:32.249Z,66.20
2018-07-01T03:24:00.388Z,67.20
2018-07-01T03:26:28.568Z,66.80
2018-07-01T03:28:56.733Z,67.40
2018-07-01T03:31:24.898Z,67.30
2018-07-01T03:33:53.006Z,66.30
2018-07-01T03:36:21.155Z,66.80
2018-07-01T03:38:49.294Z,67.80
2018-07-01T03:41:17.394Z,68.30
2018-07-01T03:43:45.558Z,67.50
2018-07-01T03:46:13.693Z,67.60
2018-07-01T03:48:41.822Z,68.00
2018-07-01T03:51:09.976Z,68.30
2018-07-01T03:53:38.133Z,68.90
2018-07-01T03:56:06.290Z,69.90
2018-07-01T03:58:34.464Z,69.40
2018-07-01T04:01:02.581Z,69.90
2018-07-01T04:03:30.744Z,70.00
2018-07-01T04:05:58.929Z,70.30
2018-07-01T04:08:27.109Z,70.40
2018-07-01T04:10:55.369Z,69.90
2018-07-01T04:13:23.542Z,70.70
2018-07-01T04:15:51.717Z,70.70
2018-07-01T04:18:19.854Z,69.50
2018-07-01T04:20:47.962Z,70.50
2018-07-01T04:23:16.165Z,71.00
2018-07-01T04:25:44.310Z,70.70
2018-07-01T04:28:12.424Z,70.40
2018-07-01T04:30:40.574Z,70.00
2018-07-01T04:33:08.769Z,70.40
2018-07-01T04:35:36.937Z,71.30
2018-07-01T04:38:05.106Z,70.60
2018-07-01T04:40:33.262Z,71.00
2018-07-01T04:43:01.426Z,70.70
2018-07-01T04:45:29.600Z,70.90
2018-07-01T04:47:57.773Z,71.10
2018-07-01T04:50:25.952Z,71.20
2018-07-01T04:52:54.125Z,71.20
2018-07-01T04:55:22.397Z,71.00
2018-07-01T04:57:50.476Z,71.10
2018-07-01T05:00:18.643Z,71.70
2018-07-01T05:02:46.746Z,71.10
2018-07-01T05:05:14.890Z,72.20
2018-07-01T05:07:43.031Z,70.80
2018-07-01T05:10:11.711Z,72.20
2018-07-01T05:12:40.093Z,70.80
2018-07-01T05:17:42.990Z,71.40
2018-07-01T05:20:11.105Z,72.10
2018-07-01T05:22:39.233Z,73.10
2018-07-01T05:25:07.367Z,71.60
2018-07-01T05:27:35.665Z,71.90
2018-07-01T05:30:03.918Z,71.20
2018-07-01T05:32:32.069Z,71.00
2018-07-01T05:37:28.242Z,70.20
2018-07-01T05:39:56.431Z,70.00
2018-07-01T05:42:24.676Z,69.10
2018-07-01T05:44:52.871Z,67.70
2018-07-01T05:47:21.022Z,67.60
2018-07-01T05:49:49.145Z,66.50
2018-07-01T05:52:17.278Z,66.50
2018-07-01T05:54:45.444Z,66.20
2018-07-01T05:57:13.615Z,64.20
2018-07-01T05:59:41.736Z,65.10
2018-07-01T06:02:09.861Z,63.60
2018-07-01T06:04:37.998Z,65.20
2018-07-01T06:07:06.238Z,63.70
2018-07-01T06:09:34.416Z,61.80
2018-07-01T06:12:02.559Z,62.90
2018-07-01T06:14:30.762Z,63.30
2018-07-01T06:16:59.156Z,60.10
2018-07-01T06:19:27.330Z,61.40
2018-07-01T06:21:55.488Z,62.20
2018-07-01T06:24:23.642Z,60.40
2018-07-01T06:26:51.762Z,60.80
2018-07-01T06:29:19.906Z,61.40
2018-07-01T06:31:48.048Z,59.30
2018-07-01T06:34:16.228Z,60.60
2018-07-01T06:36:44.345Z,61.20
2018-07-01T06:39:12.929Z,60.30
2018-07-01T06:41:44.305Z,60.70
2018-07-01T06:44:12.458Z,60.60
2018-07-01T06:46:40.633Z,59.60
2018-07-01T06:49:09.832Z,60.70
2018-07-01T06:51:37.976Z,59.70
2018-07-01T06:54:06.169Z,58.80
2018-07-01T06:56:34.338Z,59.00
2018-07-01T06:59:02.467Z,58.90
2018-07-01T07:01:30.666Z,57.80
2018-07-01T07:03:58.898Z,58.10
2018-07-01T07:06:27.074Z,58.70
2018-07-01T07:08:55.266Z,58.10
2018-07-01T07:11:24.618Z,59.70
2018-07-01T07:13:52.766Z,58.10
2018-07-01T07:16:21.001Z,58.60
2018-07-01T07:18:49.051Z,58.70
2018-07-01T07:21:17.194Z,58.80
2018-07-01T07:23:45.374Z,59.20
2018-07-01T07:26:13.489Z,58.60
2018-07-01T07:28:41.658Z,57.90
2018-07-01T07:31:09.796Z,56.90
2018-07-01T07:33:37.908Z,57.70
2018-07-01T07:36:06.045Z,57.10
2018-07-01T07:38:34.181Z,58.40
2018-07-01T07:41:02.409Z,59.20
2018-07-01T07:43:30.563Z,57.20
2018-07-01T07:45:58.697Z,58.10
2018-07-01T07:48:26.825Z,57.10
2018-07-01T07:50:54.985Z,57.30
2018-07-01T07:53:23.160Z,57.00
2018-07-01T07:55:51.295Z,58.00
2018-07-01T07:58:19.435Z,57.20
2018-07-01T08:00:47.579Z,56.30
2018-07-01T08:03:15.742Z,57.00
2018-07-01T08:05:43.917Z,56.50
2018-07-01T08:08:13.140Z,56.40
2018-07-01T08:10:41.339Z,56.80
2018-07-01T08:13:09.606Z,56.10
2018-07-01T08:15:37.755Z,57.00
2018-07-01T08:18:06.144Z,56.70
2018-07-01T08:20:34.300Z,57.10
2018-07-01T08:23:02.503Z,56.60
2018-07-01T08:25:30.731Z,56.60
2018-07-01T08:27:59.045Z,53.70
2018-07-01T08:30:27.183Z,56.80
2018-07-01T08:32:55.313Z,56.80
2018-07-01T08:35:23.567Z,57.20
2018-07-01T08:37:51.717Z,55.10
2018-07-01T08:40:19.958Z,54.70
2018-07-01T08:42:48.065Z,56.50
2018-07-01T08:45:16.182Z,55.80
2018-07-01T08:47:44.320Z,55.50
2018-07-01T08:50:12.465Z,56.50
2018-07-01T08:52:40.639Z,55.30
2018-07-01T08:57:37.023Z,55.50
2018-07-01T09:00:06.791Z,55.00
2018-07-01T09:02:34.947Z,54.00
2018-07-01T09:05:03.176Z,53.40
2018-07-01T09:07:31.384Z,54.00
2018-07-01T09:09:59.511Z,55.10
2018-07-01T09:12:27.672Z,54.70
2018-07-01T09:14:56.882Z,54.40
2018-07-01T09:17:25.047Z,54.40
2018-07-01T09:19:53.225Z,54.90
2018-07-01T09:22:21.382Z,53.90
2018-07-01T09:24:49.512Z,53.20
2018-07-01T09:27:17.638Z,52.90
2018-07-01T09:29:51.160Z,54.30
2018-07-01T09:32:19.272Z,53.00
2018-07-01T09:34:47.406Z,52.80
2018-07-01T09:37:15.516Z,52.90
2018-07-01T09:39:45.563Z,53.00
2018-07-01T09:42:13.719Z,52.30
2018-07-01T09:47:58.783Z,52.00
2018-07-01T09:50:27.017Z,53.00
2018-07-01T09:52:55.853Z,52.30
2018-07-01T09:55:24.006Z,51.90
2018-07-01T09:57:52.566Z,51.00
2018-07-01T10:00:20.698Z,51.60
2018-07-01T10:02:48.834Z,51.70
2018-07-01T10:05:17.001Z,49.10
2018-07-01T10:07:45.362Z,52.20
2018-07-01T10:10:13.513Z,51.50
2018-07-01T10:12:41.796Z,51.20
2018-07-01T10:15:10.006Z,50.80
2018-07-01T10:17:38.155Z,51.00
2018-07-01T10:20:06.318Z,51.00
2018-07-01T10:22:34.489Z,49.50
2018-07-01T10:25:02.681Z,49.00
2018-07-01T10:27:30.954Z,50.70
2018-07-01T10:33:26.163Z,49.20
2018-07-01T10:38:58.500Z,49.60
2018-07-01T10:41:28.411Z,49.10
2018-07-01T10:44:01.490Z,48.20
2018-07-01T10:46:29.657Z,49.40
2018-07-01T10:48:57.866Z,49.90
2018-07-01T10:51:26.045Z,49.60
2018-07-01T10:53:54.556Z,49.50
2018-07-01T10:56:22.697Z,48.00
2018-07-01T10:58:50.901Z,48.00
2018-07-01T11:01:19.110Z,47.10
2018-07-01T11:03:47.397Z,48.20
2018-07-01T11:06:15.732Z,48.50
2018-07-01T11:08:43.738Z,49.40
2018-07-01T11:11:11.913Z,50.40
2018-07-01T11:13:40.122Z,50.00
2018-07-01T11:16:13.161Z,49.70
2018-07-01T11:21:24.436Z,50.00
2018-07-01T11:23:55.321Z,48.00
2018-07-01T11:26:52.603Z,48.90
2018-07-01T11:29:35.222Z,48.40
2018-07-01T11:32:03.364Z,50.00
2018-07-01T11:34:32.517Z,48.30
2018-07-01T11:37:00.836Z,49.40
2018-07-01T11:39:29.087Z,48.70
2018-07-01T11:41:57.305Z,48.50
2018-07-01T11:44:25.503Z,48.00
2018-07-01T11:47:18.156Z,49.00
2018-07-01T11:49:46.310Z,49.00
2018-07-01T11:52:15.256Z,48.80
2018-07-01T11:54:43.480Z,49.30
2018-07-01T11:57:36.343Z,48.40
2018-07-01T12:00:05.186Z,47.80
2018-07-01T12:02:33.375Z,49.60
2018-07-01T12:05:16.205Z,49.60
2018-07-01T12:07:57.286Z,49.40
2018-07-01T12:10:53.724Z,48.30
2018-07-01T12:13:27.476Z,48.10
2018-07-01T12:15:55.713Z,49.20
2018-07-01T12:18:54.454Z,49.00
2018-07-01T12:21:27.802Z,47.80
2018-07-01T12:23:56.003Z,47.50
2018-07-01T12:26:25.242Z,47.90
2018-07-01T12:28:53.729Z,48.60
2018-07-01T12:31:25.892Z,48.20
2018-07-01T12:34:06.659Z,48.70
2018-07-01T15:39:24.374Z,48.60
2018-07-01T15:44:50.546Z,47.70
2018-07-01T15:47:19.718Z,47.90
2018-07-01T15:49:47.830Z,48.60
2018-07-01T15:52:15.964Z,48.10
2018-07-01T15:54:47.643Z,47.60
2018-07-01T15:57:15.793Z,48.20
2018-07-01T15:59:44.663Z,48.20
2018-07-01T16:02:12.808Z,47.50
2018-07-01T16:04:41.339Z,48.10
2018-07-01T16:07:09.488Z,48.40
2018-07-01T16:09:37.803Z,47.50
2018-07-01T16:12:06.748Z,47.90
2018-07-01T16:14:34.854Z,48.10
2018-07-01T16:17:03.126Z,47.70
2018-07-01T16:19:31.299Z,48.10
2018-07-01T16:21:59.454Z,49.20
2018-07-01T16:25:56.762Z,47.70
2018-07-01T16:28:30.424Z,48.20
2018-07-01T16:30:58.653Z,48.30
2018-07-01T16:40:36.099Z,47.70
2018-07-01T16:43:04.282Z,48.10
2018-07-01T16:45:32.764Z,48.00
2018-07-01T16:51:35.898Z,47.90
2018-07-01T16:54:09.986Z,48.10
2018-07-01T16:56:40.936Z,48.40
2018-07-01T16:59:09.256Z,48.90
2018-07-01T17:01:37.406Z,48.10
2018-07-01T17:04:05.597Z,47.90
2018-07-01T17:06:33.834Z,48.10
2018-07-01T17:09:02.059Z,48.00
2018-07-01T17:11:30.222Z,47.80
2018-07-01T17:14:05.561Z,48.20
2018-07-01T17:16:34.710Z,47.80
2018-07-01T17:19:03.088Z,48.80
2018-07-01T17:21:34.043Z,48.60
2018-07-01T17:24:02.377Z,49.20
2018-07-01T17:26:30.545Z,48.40
2018-07-01T17:29:00.331Z,48.10
2018-07-01T17:31:33.769Z,47.10
2018-07-01T17:34:01.966Z,48.00
2018-07-01T17:36:30.116Z,47.60
2018-07-01T17:38:58.233Z,47.70
2018-07-01T17:41:26.370Z,47.00
2018-07-01T17:43:55.602Z,47.50
2018-07-01T17:46:23.811Z,48.00
2018-07-01T17:48:51.998Z,47.50
2018-07-01T17:51:20.176Z,47.80
2018-07-01T17:53:55.162Z,47.10
2018-07-01T17:56:23.622Z,46.70
2018-07-01T17:58:52.031Z,47.00
2018-07-01T18:01:20.187Z,47.50
2018-07-01T18:03:48.903Z,46.70
2018-07-01T18:06:17.088Z,46.30
2018-07-01T18:08:45.245Z,46.70
2018-07-01T18:11:13.417Z,46.70
2018-07-01T18:13:41.533Z,47.20
2018-07-01T18:16:09.694Z,46.70
2018-07-01T18:18:38.897Z,46.60
2018-07-01T18:21:07.080Z,46.70
2018-07-01T18:24:02.955Z,46.90
2018-07-01T18:26:03.446Z,46.90
2018-07-01T18:28:45.184Z,47.20
2018-07-01T18:30:59.844Z,46.70
2018-07-01T18:33:27.962Z,47.30
2018-07-01T18:35:56.105Z,46.70
2018-07-01T18:38:24.214Z,47.10
2018-07-01T18:40:52.751Z,46.70
2018-07-01T18:43:20.542Z,46.80
2018-07-01T18:45:48.697Z,46.40
2018-07-01T18:48:16.874Z,46.70
2018-07-01T18:50:45.009Z,46.90
2018-07-01T18:53:13.152Z,46.70
2018-07-01T18:55:41.221Z,46.50
2018-07-01T18:58:09.366Z,46.70
2018-07-01T19:00:37.514Z,47.40
2018-07-01T19:03:05.658Z,47.20
2018-07-01T19:05:33.838Z,48.20
2018-07-01T19:08:02.015Z,47.40
2018-07-01T19:10:30.187Z,47.40
2018-07-01T19:12:58.348Z,48.00
2018-07-01T19:15:26.514Z,48.10
2018-07-01T19:17:54.646Z,47.50
2018-07-01T19:20:23.079Z,47.80
2018-07-01T19:22:51.204Z,47.40
2018-07-01T19:25:19.346Z,48.10
2018-07-01T19:27:47.521Z,47.20
2018-07-01T19:30:15.663Z,48.00
2018-07-01T19:32:43.814Z,48.00
2018-07-01T19:35:11.971Z,48.20
2018-07-01T19:37:40.186Z,48.60
2018-07-01T19:40:08.335Z,49.20
2018-07-01T19:42:36.699Z,48.40
2018-07-01T19:45:05.638Z,49.10
2018-07-01T19:47:34.316Z,50.00
2018-07-01T19:52:30.402Z,50.00
2018-07-01T19:54:58.504Z,49.30
2018-07-01T19:57:27.018Z,49.60
2018-07-01T19:59:55.174Z,49.90
2018-07-01T20:02:24.166Z,51.40
2018-07-01T20:04:52.644Z,50.40
2018-07-01T20:07:20.928Z,51.40
2018-07-01T20:12:17.038Z,52.80
2018-07-01T20:14:45.591Z,50.90
2018-07-01T20:17:13.740Z,51.50
2018-07-01T20:19:41.899Z,51.50
2018-07-01T20:22:10.419Z,52.00
2018-07-01T20:24:38.594Z,52.60
2018-07-01T20:27:06.769Z,53.00
2018-07-01T20:29:34.865Z,52.60
2018-07-01T20:32:04.094Z,53.30
2018-07-01T20:34:32.291Z,53.20
2018-07-01T20:37:00.442Z,52.90
2018-07-01T20:39:28.632Z,54.00
2018-07-01T20:41:56.774Z,53.50
2018-07-01T20:44:25.003Z,54.00
2018-07-01T20:46:53.188Z,53.70
2018-07-01T20:49:22.366Z,54.30
2018-07-01T20:51:50.929Z,53.20
2018-07-01T20:56:47.094Z,54.80
2018-07-01T20:59:15.469Z,55.00
2018-07-01T21:01:43.763Z,55.00
2018-07-01T21:04:11.926Z,54.80
2018-07-01T21:06:40.050Z,54.90
2018-07-01T21:09:09.754Z,55.10
2018-07-01T21:11:38.162Z,55.10
2018-07-01T21:14:06.446Z,56.00
2018-07-01T21:16:34.697Z,54.90
2018-07-01T21:19:03.204Z,55.60
2018-07-01T21:21:31.347Z,56.20
2018-07-01T21:23:59.629Z,56.70
2018-07-01T21:26:27.837Z,56.20
2018-07-01T21:28:57.059Z,56.70
2018-07-01T21:31:25.248Z,56.10
2018-07-01T21:33:53.389Z,55.50
2018-07-01T21:36:21.546Z,55.40
2018-07-01T21:38:49.783Z,55.50
2018-07-01T21:41:17.925Z,55.40
2018-07-01T21:43:46.172Z,55.90
2018-07-01T21:46:21.010Z,55.90
2018-07-01T21:48:49.228Z,55.80
2018-07-01T21:51:17.385Z,56.00
2018-07-01T21:53:45.551Z,57.00
2018-07-01T21:56:13.708Z,57.50
2018-07-01T21:58:41.924Z,57.30
2018-07-01T22:01:10.217Z,57.80
2018-07-01T22:03:38.393Z,57.60
2018-07-01T22:08:35.802Z,58.50
2018-07-01T22:11:21.072Z,58.00
2018-07-01T22:14:24.183Z,58.30
2018-07-01T22:16:52.334Z,57.70
2018-07-01T22:19:21.129Z,58.90
2018-07-01T22:21:50.254Z,58.90
2018-07-01T22:24:18.401Z,59.10
2018-07-01T22:26:46.554Z,59.50
2018-07-01T22:29:15.794Z,58.50
2018-07-01T22:31:43.916Z,57.90
2018-07-01T22:34:13.301Z,58.70
2018-07-01T22:36:42.419Z,59.30
2018-07-01T22:39:21.029Z,59.80
2018-07-01T22:41:50.663Z,59.50
2018-07-01T22:44:18.774Z,59.20
2018-07-01T22:46:47.583Z,60.20
2018-07-01T22:49:15.714Z,59.50
2018-07-01T22:51:43.859Z,59.50
2018-07-01T22:54:12.010Z,60.10
2018-07-01T22:56:40.175Z,60.00
2018-07-01T22:59:08.342Z,60.50
2018-07-01T23:02:42.805Z,59.70
2018-07-01T23:05:10.982Z,60.30
2018-07-01T23:07:39.119Z,59.70
2018-07-01T23:10:07.264Z,61.40
2018-07-01T23:12:35.512Z,60.60
2018-07-01T23:15:03.685Z,61.40
2018-07-01T23:17:32.023Z,61.60
2018-07-01T23:20:00.299Z,61.60
2018-07-01T23:22:28.426Z,61.50
2018-07-01T23:24:56.644Z,61.10
2018-07-01T23:27:24.728Z,61.70
2018-07-01T23:29:52.870Z,62.60
2018-07-01T23:32:21.023Z,62.80
2018-07-01T23:34:49.578Z,62.20
2018-07-01T23:37:17.732Z,61.10
2018-07-01T23:39:45.878Z,62.10
2018-07-01T23:42:14.334Z,61.80
2018-07-01T23:44:42.490Z,62.80
2018-07-01T23:47:10.687Z,63.20
2018-07-01T23:49:38.914Z,62.40
2018-07-01T23:52:07.152Z,63.30
2018-07-01T23:54:35.322Z,64.20
2018-07-01T23:57:04.084Z,63.10
2018-07-01T23:59:32.250Z,63.70
